IRA404 OIIE-LLBG
Flight info
| Callsign | IRA404 |
|---|---|
| Flight time | 3h 8m |
| Altitude | 40000 |
| Route | RUS4D RUS G667 SOGOL P574 SAV B411 ILM G202 RAPLU R652 GIBUX L200 DAXEN A412 NADEK L200 ASLON A412 KUPRI L200 OSAMA N134 SALAM SALA3A |
| Aircraft | A332/M-V/N |
Departure
| Time | 2026-05-05 13:21 |
|---|---|
| Airport | Imam Khomeini International Airport (OIIE) |
Arrival
| Time | 2026-05-05 16:29 |
|---|---|
| Airport | Ben Gurion International Airport (LLBG) |
| Time | Latitude | Longitude | Altitude | Speed | Heading |
|---|---|---|---|---|---|
| 2026-05-05 12:58 | 35.41155 | 51.15007 | 3279 ft | 0 kts | 199° |
| 2026-05-05 13:04 | 35.41154 | 51.15007 | 3279 ft | 0 kts | 199° |
| 2026-05-05 13:04 | 35.41161 | 51.15010 | 3281 ft | 1 kts | 191° |
| 2026-05-05 13:04 | 35.41168 | 51.15012 | 3276 ft | 1 kts | 185° |
| 2026-05-05 13:05 | 35.41178 | 51.15013 | 3274 ft | 1 kts | 165° |
| 2026-05-05 13:05 | 35.41179 | 51.15013 | 3275 ft | 0 kts | 160° |
| 2026-05-05 13:07 | 35.41181 | 51.15012 | 3274 ft | 3 kts | 160° |
| 2026-05-05 13:07 | 35.41198 | 51.15005 | 3274 ft | 3 kts | 160° |
| 2026-05-05 13:07 | 35.41216 | 51.14997 | 3274 ft | 3 kts | 160° |
| 2026-05-05 13:08 | 35.41234 | 51.14989 | 3276 ft | 3 kts | 166° |
| 2026-05-05 13:08 | 35.41253 | 51.14986 | 3275 ft | 3 kts | 191° |
| 2026-05-05 13:08 | 35.41272 | 51.14993 | 3275 ft | 3 kts | 216° |
| 2026-05-05 13:08 | 35.41283 | 51.15004 | 3274 ft | 0 kts | 234° |
| 2026-05-05 13:13 | 35.41282 | 51.15002 | 3274 ft | 3 kts | 238° |
| 2026-05-05 13:13 | 35.41276 | 51.14959 | 3294 ft | 8 kts | 271° |
| 2026-05-05 13:13 | 35.41292 | 51.14877 | 3276 ft | 12 kts | 287° |
| 2026-05-05 13:13 | 35.41338 | 51.14728 | 3282 ft | 11 kts | 305° |
| 2026-05-05 13:14 | 35.41394 | 51.14710 | 3283 ft | 8 kts | 7° |
| 2026-05-05 13:14 | 35.41436 | 51.14723 | 3283 ft | 9 kts | 17° |
| 2026-05-05 13:14 | 35.41501 | 51.14735 | 3283 ft | 9 kts | 352° |
| 2026-05-05 13:14 | 35.41550 | 51.14667 | 3284 ft | 14 kts | 295° |
| 2026-05-05 13:15 | 35.41594 | 51.14515 | 3286 ft | 20 kts | 289° |
| 2026-05-05 13:15 | 35.41641 | 51.14346 | 3288 ft | 28 kts | 289° |
| 2026-05-05 13:15 | 35.41706 | 51.14114 | 3290 ft | 28 kts | 289° |
| 2026-05-05 13:15 | 35.41780 | 51.13850 | 3293 ft | 42 kts | 289° |
| 2026-05-05 13:16 | 35.41860 | 51.13564 | 3299 ft | 26 kts | 289° |
| 2026-05-05 13:16 | 35.41919 | 51.13445 | 3301 ft | 4 kts | 345° |
| 2026-05-05 13:16 | 35.41920 | 51.13445 | 3301 ft | 0 kts | 345° |
| 2026-05-05 13:16 | 35.41941 | 51.13444 | 3301 ft | 13 kts | 359° |
| 2026-05-05 13:17 | 35.42050 | 51.13481 | 3302 ft | 0 kts | 18° |
| 2026-05-05 13:17 | 35.42134 | 51.13504 | 3302 ft | 17 kts | 354° |
| 2026-05-05 13:17 | 35.42215 | 51.13365 | 3303 ft | 33 kts | 289° |
| 2026-05-05 13:17 | 35.42304 | 51.13043 | 3306 ft | 40 kts | 289° |
| 2026-05-05 13:18 | 35.42389 | 51.12740 | 3311 ft | 35 kts | 289° |
| 2026-05-05 13:18 | 35.42458 | 51.12491 | 3315 ft | 27 kts | 289° |
| 2026-05-05 13:18 | 35.42499 | 51.12322 | 3317 ft | 11 kts | 267° |
| 2026-05-05 13:18 | 35.42502 | 51.12238 | 3318 ft | 8 kts | 301° |
| 2026-05-05 13:19 | 35.42530 | 51.12243 | 3318 ft | 4 kts | 45° |
| 2026-05-05 13:19 | 35.42525 | 51.12272 | 3318 ft | 4 kts | 115° |
| 2026-05-05 13:19 | 35.42520 | 51.12285 | 3318 ft | 0 kts | 114° |
| 2026-05-05 13:20 | 35.42520 | 51.12286 | 3318 ft | 1 kts | 113° |
| 2026-05-05 13:20 | 35.42455 | 51.12498 | 3315 ft | 65 kts | 109° |
| 2026-05-05 13:21 | 35.42220 | 51.13347 | 3303 ft | 142 kts | 109° |
| 2026-05-05 13:21 | 35.41829 | 51.14740 | 3291 ft | 200 kts | 109° |
| 2026-05-05 13:21 | 35.41338 | 51.16475 | 3560 ft | 222 kts | 110° |
| 2026-05-05 13:21 | 35.40835 | 51.18350 | 4031 ft | 238 kts | 109° |
| 2026-05-05 13:22 | 35.40273 | 51.20301 | 4429 ft | 254 kts | 112° |
| 2026-05-05 13:22 | 35.39654 | 51.22349 | 5018 ft | 253 kts | 111° |
| 2026-05-05 13:22 | 35.39067 | 51.24353 | 5383 ft | 253 kts | 109° |
| 2026-05-05 13:22 | 35.38742 | 51.26646 | 4642 ft | 299 kts | 90° |
| 2026-05-05 13:23 | 35.39301 | 51.29265 | 4185 ft | 332 kts | 65° |
| 2026-05-05 13:23 | 35.40553 | 51.31572 | 4524 ft | 328 kts | 48° |
| 2026-05-05 13:23 | 35.42387 | 51.33184 | 4840 ft | 321 kts | 24° |
| 2026-05-05 13:23 | 35.44436 | 51.33813 | 5016 ft | 285 kts | 1° |
| 2026-05-05 13:24 | 35.46273 | 51.33421 | 4832 ft | 253 kts | 332° |
| 2026-05-05 13:24 | 35.47613 | 51.32110 | 5028 ft | 247 kts | 304° |
| 2026-05-05 13:24 | 35.48252 | 51.30160 | 5360 ft | 250 kts | 275° |
| 2026-05-05 13:24 | 35.48011 | 51.28056 | 5774 ft | 254 kts | 244° |
| 2026-05-05 13:25 | 35.46986 | 51.26265 | 5724 ft | 273 kts | 226° |
| 2026-05-05 13:25 | 35.45567 | 51.24439 | 5303 ft | 291 kts | 222° |
| 2026-05-05 13:25 | 35.44034 | 51.23077 | 5754 ft | 263 kts | 212° |
| 2026-05-05 13:25 | 35.42544 | 51.21830 | 6201 ft | 257 kts | 218° |
| 2026-05-05 13:26 | 35.41218 | 51.20224 | 6075 ft | 292 kts | 234° |
| 2026-05-05 13:26 | 35.40455 | 51.17727 | 5614 ft | 316 kts | 262° |
| 2026-05-05 13:26 | 35.40615 | 51.15160 | 5891 ft | 295 kts | 279° |
| 2026-05-05 13:26 | 35.41065 | 51.12610 | 4854 ft | 320 kts | 282° |
| 2026-05-05 13:27 | 35.41555 | 51.10111 | 5310 ft | 285 kts | 282° |
| 2026-05-05 13:27 | 35.42007 | 51.07881 | 5753 ft | 258 kts | 282° |
| 2026-05-05 13:27 | 35.42437 | 51.05741 | 6181 ft | 259 kts | 281° |
| 2026-05-05 13:27 | 35.42819 | 51.03562 | 6595 ft | 263 kts | 279° |
| 2026-05-05 13:28 | 35.43170 | 51.01362 | 7015 ft | 265 kts | 278° |
| 2026-05-05 13:28 | 35.43505 | 50.99098 | 7077 ft | 282 kts | 277° |
| 2026-05-05 13:28 | 35.43845 | 50.96512 | 6431 ft | 315 kts | 276° |
| 2026-05-05 13:28 | 35.43992 | 50.93905 | 6426 ft | 298 kts | 261° |
| 2026-05-05 13:29 | 35.43361 | 50.91612 | 6462 ft | 278 kts | 240° |
| 2026-05-05 13:29 | 35.42399 | 50.89646 | 6539 ft | 260 kts | 237° |
| 2026-05-05 13:29 | 35.41387 | 50.87764 | 5932 ft | 272 kts | 235° |
| 2026-05-05 13:29 | 35.40242 | 50.85854 | 5268 ft | 282 kts | 231° |
| 2026-05-05 13:30 | 35.39081 | 50.84111 | 5727 ft | 249 kts | 230° |
| 2026-05-05 13:30 | 35.37969 | 50.82546 | 6134 ft | 246 kts | 229° |
| 2026-05-05 13:30 | 35.36828 | 50.80967 | 6413 ft | 249 kts | 227° |
| 2026-05-05 13:30 | 35.35656 | 50.79395 | 6671 ft | 251 kts | 227° |
| 2026-05-05 13:31 | 35.34458 | 50.77838 | 6929 ft | 252 kts | 226° |
| 2026-05-05 13:31 | 35.33247 | 50.76286 | 7195 ft | 256 kts | 226° |
| 2026-05-05 13:31 | 35.31972 | 50.74670 | 7181 ft | 265 kts | 226° |
| 2026-05-05 13:31 | 35.30698 | 50.73062 | 7123 ft | 258 kts | 226° |
| 2026-05-05 13:32 | 35.29518 | 50.71586 | 7540 ft | 235 kts | 226° |
| 2026-05-05 13:32 | 35.28275 | 50.70038 | 6505 ft | 290 kts | 226° |
| 2026-05-05 13:32 | 35.26809 | 50.68205 | 6254 ft | 294 kts | 225° |
| 2026-05-05 13:32 | 35.25344 | 50.66388 | 5864 ft | 293 kts | 225° |
| 2026-05-05 13:33 | 35.24003 | 50.64738 | 6339 ft | 261 kts | 226° |
| 2026-05-05 13:33 | 35.22788 | 50.63225 | 6757 ft | 243 kts | 226° |
| 2026-05-05 13:33 | 35.21782 | 50.61963 | 7102 ft | 251 kts | 226° |
| 2026-05-05 13:33 | 35.20550 | 50.60407 | 7576 ft | 255 kts | 226° |
| 2026-05-05 13:34 | 35.19310 | 50.58854 | 8066 ft | 255 kts | 225° |
| 2026-05-05 13:34 | 35.18066 | 50.57309 | 8537 ft | 255 kts | 226° |
| 2026-05-05 13:34 | 35.16817 | 50.55756 | 9019 ft | 255 kts | 226° |
| 2026-05-05 13:34 | 35.15587 | 50.54217 | 9529 ft | 254 kts | 225° |
| 2026-05-05 13:35 | 35.14326 | 50.52642 | 9886 ft | 262 kts | 225° |
| 2026-05-05 13:35 | 35.12989 | 50.50985 | 9364 ft | 283 kts | 225° |
| 2026-05-05 13:35 | 35.11559 | 50.49223 | 8492 ft | 299 kts | 226° |
| 2026-05-05 13:35 | 35.10002 | 50.47282 | 7081 ft | 340 kts | 225° |
| 2026-05-05 13:36 | 35.08398 | 50.45283 | 7071 ft | 329 kts | 226° |
| 2026-05-05 13:36 | 35.06824 | 50.43325 | 7016 ft | 317 kts | 226° |
| 2026-05-05 13:36 | 35.05305 | 50.41432 | 6990 ft | 306 kts | 226° |
| 2026-05-05 13:36 | 35.03999 | 50.39532 | 7367 ft | 278 kts | 237° |
| 2026-05-05 13:37 | 35.03099 | 50.37446 | 6934 ft | 280 kts | 245° |
| 2026-05-05 13:37 | 35.02384 | 50.35385 | 7439 ft | 249 kts | 246° |
| 2026-05-05 13:37 | 35.01748 | 50.33417 | 7640 ft | 266 kts | 248° |
| 2026-05-05 13:37 | 35.01046 | 50.31023 | 6636 ft | 326 kts | 250° |
| 2026-05-05 13:38 | 35.00390 | 50.28401 | 6434 ft | 320 kts | 252° |
| 2026-05-05 13:38 | 34.99801 | 50.25837 | 6445 ft | 307 kts | 253° |
| 2026-05-05 13:38 | 34.99266 | 50.23384 | 6529 ft | 291 kts | 253° |
| 2026-05-05 13:38 | 34.98779 | 50.21059 | 6660 ft | 274 kts | 253° |
| 2026-05-05 13:39 | 34.98319 | 50.18796 | 5891 ft | 287 kts | 254° |
| 2026-05-05 13:39 | 34.97796 | 50.16306 | 5222 ft | 301 kts | 254° |
| 2026-05-05 13:39 | 34.97316 | 50.13926 | 5475 ft | 275 kts | 254° |
| 2026-05-05 13:39 | 34.96886 | 50.11775 | 5874 ft | 247 kts | 254° |
| 2026-05-05 13:40 | 34.96476 | 50.09762 | 6336 ft | 248 kts | 254° |
| 2026-05-05 13:40 | 34.96067 | 50.07742 | 6774 ft | 245 kts | 253° |
| 2026-05-05 13:40 | 34.95657 | 50.05694 | 7039 ft | 253 kts | 253° |
| 2026-05-05 13:40 | 34.95248 | 50.03639 | 7446 ft | 252 kts | 253° |
| 2026-05-05 13:41 | 34.94834 | 50.01601 | 7948 ft | 250 kts | 253° |
| 2026-05-05 13:41 | 34.94409 | 49.99538 | 8403 ft | 249 kts | 253° |
| 2026-05-05 13:41 | 34.93997 | 49.97481 | 8838 ft | 253 kts | 253° |
| 2026-05-05 13:41 | 34.93570 | 49.95382 | 9290 ft | 256 kts | 252° |
| 2026-05-05 13:42 | 34.93148 | 49.93300 | 9652 ft | 253 kts | 252° |
| 2026-05-05 13:42 | 34.92720 | 49.91182 | 10056 ft | 259 kts | 252° |
| 2026-05-05 13:42 | 34.92300 | 49.89101 | 10485 ft | 258 kts | 252° |
| 2026-05-05 13:42 | 34.91871 | 49.86982 | 10887 ft | 257 kts | 252° |
| 2026-05-05 13:43 | 34.91439 | 49.84854 | 11334 ft | 260 kts | 252° |
| 2026-05-05 13:43 | 34.91012 | 49.82760 | 12048 ft | 253 kts | 252° |
| 2026-05-05 13:43 | 34.90595 | 49.80696 | 12788 ft | 250 kts | 252° |
| 2026-05-05 13:43 | 34.90186 | 49.78657 | 13518 ft | 249 kts | 252° |
| 2026-05-05 13:44 | 34.89769 | 49.76614 | 14062 ft | 249 kts | 252° |
| 2026-05-05 13:44 | 34.89347 | 49.74560 | 14568 ft | 253 kts | 252° |
| 2026-05-05 13:44 | 34.88919 | 49.72505 | 15030 ft | 255 kts | 252° |
| 2026-05-05 13:44 | 34.88484 | 49.70388 | 15591 ft | 254 kts | 252° |
| 2026-05-05 13:45 | 34.88054 | 49.68287 | 15837 ft | 270 kts | 252° |
| 2026-05-05 13:45 | 34.87571 | 49.65982 | 15430 ft | 285 kts | 252° |
| 2026-05-05 13:45 | 34.87097 | 49.63661 | 15228 ft | 280 kts | 252° |
| 2026-05-05 13:45 | 34.86633 | 49.61392 | 15159 ft | 272 kts | 251° |
| 2026-05-05 13:46 | 34.86121 | 49.59109 | 15049 ft | 280 kts | 250° |
| 2026-05-05 13:46 | 34.85588 | 49.56829 | 14682 ft | 284 kts | 250° |
| 2026-05-05 13:46 | 34.85049 | 49.54562 | 14603 ft | 276 kts | 250° |
| 2026-05-05 13:46 | 34.84540 | 49.52436 | 15150 ft | 251 kts | 250° |
| 2026-05-05 13:47 | 34.84039 | 49.50362 | 15596 ft | 255 kts | 249° |
| 2026-05-05 13:47 | 34.83522 | 49.48299 | 16175 ft | 255 kts | 249° |
| 2026-05-05 13:47 | 34.82996 | 49.46228 | 16763 ft | 256 kts | 249° |
| 2026-05-05 13:47 | 34.82480 | 49.44161 | 17482 ft | 255 kts | 249° |
| 2026-05-05 13:48 | 34.81937 | 49.42009 | 17662 ft | 273 kts | 249° |
| 2026-05-05 13:48 | 34.81341 | 49.39691 | 17532 ft | 302 kts | 249° |
| 2026-05-05 13:48 | 34.80693 | 49.37191 | 17351 ft | 313 kts | 250° |
| 2026-05-05 13:48 | 34.80042 | 49.34655 | 17160 ft | 314 kts | 250° |
| 2026-05-05 13:49 | 34.79406 | 49.32108 | 16468 ft | 321 kts | 249° |
| 2026-05-05 13:49 | 34.78702 | 49.29323 | 14561 ft | 370 kts | 249° |
| 2026-05-05 13:49 | 34.77879 | 49.26123 | 12283 ft | 424 kts | 249° |
| 2026-05-05 13:49 | 34.76925 | 49.22460 | 9827 ft | 485 kts | 250° |
| 2026-05-05 13:50 | 34.75852 | 49.18326 | 7340 ft | 530 kts | 250° |
| 2026-05-05 13:50 | 34.74745 | 49.13998 | 5456 ft | 539 kts | 252° |
| 2026-05-05 13:50 | 34.73688 | 49.09992 | 5615 ft | 473 kts | 250° |
| 2026-05-05 13:50 | 34.72802 | 49.06628 | 7851 ft | 345 kts | 249° |
| 2026-05-05 13:51 | 34.72173 | 49.04110 | 9766 ft | 291 kts | 249° |
| 2026-05-05 13:51 | 34.71568 | 49.01784 | 9180 ft | 300 kts | 248° |
| 2026-05-05 13:51 | 34.70932 | 48.99304 | 8664 ft | 316 kts | 249° |
| 2026-05-05 13:51 | 34.70284 | 48.96665 | 8670 ft | 333 kts | 250° |
| 2026-05-05 13:52 | 34.69620 | 48.93907 | 9205 ft | 346 kts | 250° |
| 2026-05-05 13:52 | 34.68920 | 48.91058 | 9890 ft | 356 kts | 249° |
| 2026-05-05 13:52 | 34.68196 | 48.88135 | 10575 ft | 366 kts | 249° |
| 2026-05-05 13:52 | 34.67448 | 48.85150 | 11274 ft | 372 kts | 249° |
| 2026-05-05 13:53 | 34.66709 | 48.82207 | 11156 ft | 364 kts | 249° |
| 2026-05-05 13:53 | 34.65949 | 48.79230 | 10624 ft | 374 kts | 249° |
| 2026-05-05 13:53 | 34.65165 | 48.76175 | 10301 ft | 383 kts | 249° |
| 2026-05-05 13:53 | 34.64360 | 48.73052 | 10316 ft | 392 kts | 249° |
| 2026-05-05 13:54 | 34.63540 | 48.69869 | 10861 ft | 393 kts | 249° |
| 2026-05-05 13:54 | 34.62745 | 48.66759 | 10898 ft | 379 kts | 248° |
| 2026-05-05 13:54 | 34.61975 | 48.63759 | 10920 ft | 365 kts | 248° |
| 2026-05-05 13:54 | 34.61237 | 48.60892 | 11164 ft | 344 kts | 248° |
| 2026-05-05 13:55 | 34.60561 | 48.58255 | 11931 ft | 310 kts | 248° |
| 2026-05-05 13:55 | 34.59935 | 48.55873 | 12124 ft | 283 kts | 248° |
| 2026-05-05 13:55 | 34.59382 | 48.53717 | 12506 ft | 261 kts | 246° |
| 2026-05-05 13:55 | 34.58815 | 48.51730 | 12927 ft | 239 kts | 242° |
| 2026-05-05 13:56 | 34.58173 | 48.49865 | 13265 ft | 240 kts | 240° |
| 2026-05-05 13:56 | 34.57467 | 48.48004 | 13682 ft | 246 kts | 239° |
| 2026-05-05 13:56 | 34.56708 | 48.46092 | 13770 ft | 264 kts | 239° |
| 2026-05-05 13:56 | 34.55830 | 48.43958 | 13633 ft | 296 kts | 239° |
| 2026-05-05 13:57 | 34.54866 | 48.41648 | 13748 ft | 314 kts | 239° |
| 2026-05-05 13:57 | 34.53911 | 48.39349 | 13980 ft | 296 kts | 239° |
| 2026-05-05 13:57 | 34.53024 | 48.37190 | 14227 ft | 276 kts | 239° |
| 2026-05-05 13:57 | 34.52198 | 48.35175 | 14515 ft | 259 kts | 239° |
| 2026-05-05 13:58 | 34.51401 | 48.33236 | 14833 ft | 258 kts | 239° |
| 2026-05-05 13:58 | 34.50577 | 48.31261 | 15145 ft | 266 kts | 239° |
| 2026-05-05 13:58 | 34.50019 | 48.29935 | 15352 ft | 268 kts | 238° |
| 2026-05-05 13:58 | 34.49170 | 48.27924 | 15661 ft | 268 kts | 239° |
| 2026-05-05 13:59 | 34.47465 | 48.23875 | 16324 ft | 270 kts | 239° |
| 2026-05-05 13:59 | 34.46612 | 48.21842 | 16644 ft | 272 kts | 239° |
| 2026-05-05 14:00 | 34.44890 | 48.17749 | 17286 ft | 273 kts | 239° |
| 2026-05-05 14:00 | 34.44028 | 48.15701 | 17586 ft | 273 kts | 239° |
| 2026-05-05 14:00 | 34.43172 | 48.13660 | 17854 ft | 272 kts | 238° |
| 2026-05-05 14:00 | 34.42301 | 48.11601 | 18194 ft | 277 kts | 239° |
| 2026-05-05 14:01 | 34.41417 | 48.09522 | 18477 ft | 277 kts | 239° |
| 2026-05-05 14:01 | 34.40539 | 48.07454 | 18743 ft | 276 kts | 239° |
| 2026-05-05 14:01 | 34.39662 | 48.05372 | 19035 ft | 279 kts | 239° |
| 2026-05-05 14:01 | 34.38774 | 48.03254 | 19307 ft | 285 kts | 239° |
| 2026-05-05 14:02 | 34.37872 | 48.01122 | 19601 ft | 283 kts | 239° |
| 2026-05-05 14:02 | 34.36979 | 47.99013 | 19904 ft | 281 kts | 239° |
| 2026-05-05 14:02 | 34.36086 | 47.96906 | 20213 ft | 282 kts | 239° |
| 2026-05-05 14:02 | 34.35187 | 47.94787 | 20460 ft | 283 kts | 239° |
| 2026-05-05 14:03 | 34.34294 | 47.92676 | 20752 ft | 287 kts | 239° |
| 2026-05-05 14:03 | 34.33378 | 47.90526 | 21038 ft | 286 kts | 239° |
| 2026-05-05 14:03 | 34.32471 | 47.88388 | 21334 ft | 285 kts | 239° |
| 2026-05-05 14:03 | 34.31569 | 47.86244 | 21657 ft | 287 kts | 239° |
| 2026-05-05 14:04 | 34.30652 | 47.84086 | 21959 ft | 290 kts | 239° |
| 2026-05-05 14:04 | 34.29723 | 47.81915 | 22253 ft | 291 kts | 239° |
| 2026-05-05 14:04 | 34.28800 | 47.79740 | 22534 ft | 291 kts | 240° |
| 2026-05-05 14:04 | 34.27867 | 47.77545 | 22865 ft | 294 kts | 240° |
| 2026-05-05 14:05 | 34.26927 | 47.75343 | 23151 ft | 295 kts | 239° |
| 2026-05-05 14:05 | 34.25983 | 47.73129 | 23461 ft | 298 kts | 239° |
| 2026-05-05 14:05 | 34.25033 | 47.70901 | 23737 ft | 298 kts | 240° |
| 2026-05-05 14:05 | 34.24083 | 47.68680 | 24007 ft | 296 kts | 240° |
| 2026-05-05 14:06 | 34.23133 | 47.66459 | 24283 ft | 297 kts | 240° |
| 2026-05-05 14:06 | 34.22181 | 47.64238 | 24541 ft | 298 kts | 240° |
| 2026-05-05 14:06 | 34.21239 | 47.62036 | 24813 ft | 300 kts | 240° |
| 2026-05-05 14:06 | 34.20267 | 47.59765 | 25112 ft | 301 kts | 240° |
| 2026-05-05 14:07 | 34.19316 | 47.57542 | 25380 ft | 301 kts | 240° |
| 2026-05-05 14:07 | 34.18355 | 47.55295 | 25662 ft | 301 kts | 240° |
| 2026-05-05 14:07 | 34.17386 | 47.53036 | 25958 ft | 304 kts | 240° |
| 2026-05-05 14:07 | 34.16409 | 47.50760 | 26248 ft | 306 kts | 240° |
| 2026-05-05 14:08 | 34.15432 | 47.48481 | 26542 ft | 305 kts | 240° |
| 2026-05-05 14:08 | 34.14459 | 47.46212 | 26833 ft | 304 kts | 240° |
| 2026-05-05 14:08 | 34.13478 | 47.43928 | 27139 ft | 308 kts | 240° |
| 2026-05-05 14:08 | 34.12487 | 47.41629 | 27459 ft | 309 kts | 240° |
| 2026-05-05 14:09 | 34.11495 | 47.39328 | 27781 ft | 309 kts | 240° |
| 2026-05-05 14:09 | 34.10505 | 47.37024 | 27862 ft | 313 kts | 240° |
| 2026-05-05 14:09 | 34.09489 | 47.34665 | 27699 ft | 319 kts | 240° |
| 2026-05-05 14:09 | 34.08467 | 47.32297 | 27638 ft | 316 kts | 240° |
| 2026-05-05 14:10 | 34.07474 | 47.29998 | 27604 ft | 310 kts | 240° |
| 2026-05-05 14:10 | 34.06489 | 47.27709 | 27595 ft | 304 kts | 240° |
| 2026-05-05 14:10 | 34.05520 | 47.25453 | 27596 ft | 300 kts | 240° |
| 2026-05-05 14:10 | 34.04561 | 47.23225 | 27591 ft | 299 kts | 240° |
| 2026-05-05 14:11 | 34.03597 | 47.20995 | 27586 ft | 301 kts | 240° |
| 2026-05-05 14:11 | 34.02620 | 47.18743 | 27581 ft | 305 kts | 240° |
| 2026-05-05 14:11 | 34.01631 | 47.16468 | 27574 ft | 307 kts | 240° |
| 2026-05-05 14:11 | 34.00636 | 47.14181 | 27573 ft | 307 kts | 240° |
| 2026-05-05 14:12 | 33.99628 | 47.11913 | 27558 ft | 307 kts | 238° |
| 2026-05-05 14:12 | 33.98550 | 47.09770 | 27559 ft | 305 kts | 236° |
| 2026-05-05 14:12 | 33.97395 | 47.07624 | 27552 ft | 304 kts | 236° |
| 2026-05-05 14:12 | 33.96219 | 47.05507 | 27562 ft | 304 kts | 235° |
| 2026-05-05 14:13 | 33.95032 | 47.03419 | 27794 ft | 297 kts | 235° |
| 2026-05-05 14:13 | 33.93834 | 47.01349 | 27676 ft | 306 kts | 234° |
| 2026-05-05 14:13 | 33.92602 | 46.99235 | 27616 ft | 309 kts | 234° |
| 2026-05-05 14:13 | 33.91376 | 46.97153 | 27575 ft | 307 kts | 234° |
| 2026-05-05 14:14 | 33.90143 | 46.95076 | 27554 ft | 303 kts | 233° |
| 2026-05-05 14:14 | 33.88924 | 46.93025 | 27577 ft | 300 kts | 233° |
| 2026-05-05 14:14 | 33.87708 | 46.90986 | 27572 ft | 299 kts | 233° |
| 2026-05-05 14:14 | 33.86489 | 46.88942 | 27577 ft | 301 kts | 233° |
| 2026-05-05 14:15 | 33.85255 | 46.86888 | 27591 ft | 304 kts | 233° |
| 2026-05-05 14:15 | 33.84009 | 46.84820 | 27697 ft | 302 kts | 233° |
| 2026-05-05 14:15 | 33.82793 | 46.82796 | 28025 ft | 297 kts | 233° |
| 2026-05-05 14:15 | 33.81578 | 46.80775 | 28374 ft | 301 kts | 233° |
| 2026-05-05 14:16 | 33.80336 | 46.78717 | 28722 ft | 308 kts | 233° |
| 2026-05-05 14:16 | 33.79072 | 46.76625 | 29063 ft | 310 kts | 234° |
| 2026-05-05 14:16 | 33.77810 | 46.74535 | 29425 ft | 308 kts | 234° |
| 2026-05-05 14:16 | 33.76555 | 46.72454 | 29786 ft | 309 kts | 234° |
| 2026-05-05 14:17 | 33.75289 | 46.70351 | 30143 ft | 311 kts | 234° |
| 2026-05-05 14:17 | 33.73998 | 46.68212 | 29790 ft | 327 kts | 234° |
| 2026-05-05 14:17 | 33.72605 | 46.65908 | 28508 ft | 358 kts | 233° |
| 2026-05-05 14:17 | 33.71073 | 46.63372 | 27450 ft | 391 kts | 233° |
| 2026-05-05 14:18 | 33.69437 | 46.60671 | 26501 ft | 404 kts | 233° |
| 2026-05-05 14:18 | 33.67787 | 46.57942 | 25673 ft | 402 kts | 233° |
| 2026-05-05 14:18 | 33.66174 | 46.55280 | 24922 ft | 395 kts | 233° |
| 2026-05-05 14:18 | 33.64549 | 46.52593 | 23657 ft | 406 kts | 233° |
| 2026-05-05 14:19 | 33.62872 | 46.49810 | 22272 ft | 418 kts | 232° |
| 2026-05-05 14:19 | 33.61133 | 46.46949 | 20979 ft | 432 kts | 232° |
| 2026-05-05 14:19 | 33.59450 | 46.44025 | 20373 ft | 420 kts | 238° |
| 2026-05-05 14:19 | 33.58375 | 46.40765 | 19404 ft | 424 kts | 252° |
| 2026-05-05 14:20 | 33.58226 | 46.37208 | 18445 ft | 435 kts | 270° |
| 2026-05-05 14:20 | 33.59045 | 46.33681 | 17389 ft | 447 kts | 288° |
| 2026-05-05 14:20 | 33.60689 | 46.30618 | 16485 ft | 459 kts | 304° |
| 2026-05-05 14:20 | 33.63117 | 46.28083 | 15559 ft | 469 kts | 320° |
| 2026-05-05 14:21 | 33.66097 | 46.26399 | 14652 ft | 479 kts | 338° |
| 2026-05-05 14:21 | 33.69396 | 46.25719 | 13695 ft | 484 kts | 355° |
| 2026-05-05 14:21 | 33.72738 | 46.26217 | 13885 ft | 465 kts | 20° |
| 2026-05-05 14:21 | 33.75104 | 46.28301 | 15312 ft | 403 kts | 55° |
| 2026-05-05 14:22 | 33.76257 | 46.31087 | 15852 ft | 356 kts | 84° |
| 2026-05-05 14:22 | 33.76025 | 46.33647 | 15829 ft | 284 kts | 136° |
| 2026-05-05 14:22 | 33.74591 | 46.35325 | 14470 ft | 306 kts | 154° |
| 2026-05-05 14:22 | 33.72752 | 46.36793 | 13072 ft | 330 kts | 157° |
| 2026-05-05 14:23 | 33.70490 | 46.37914 | 11684 ft | 358 kts | 171° |
| 2026-05-05 14:23 | 33.68227 | 46.38231 | 10910 ft | 293 kts | 181° |
| 2026-05-05 14:23 | 33.66332 | 46.38216 | 9454 ft | 266 kts | 184° |
| 2026-05-05 14:23 | 33.64508 | 46.38238 | 7902 ft | 257 kts | 180° |
| 2026-05-05 14:24 | 33.62755 | 46.38382 | 6718 ft | 243 kts | 173° |
| 2026-05-05 14:24 | 33.61118 | 46.38722 | 5582 ft | 235 kts | 172° |
| 2026-05-05 14:24 | 33.59708 | 46.39481 | 4487 ft | 220 kts | 144° |
| 2026-05-05 14:24 | 33.58631 | 46.40497 | 4387 ft | 174 kts | 142° |
| 2026-05-05 14:25 | 33.57962 | 46.41128 | 4401 ft | 59 kts | 142° |
| 2026-05-05 14:25 | 33.57685 | 46.41384 | 4408 ft | 46 kts | 141° |
| 2026-05-05 14:25 | 33.57507 | 46.41531 | 4414 ft | 23 kts | 159° |
| 2026-05-05 14:25 | 33.57420 | 46.41583 | 4415 ft | 4 kts | 114° |
| 2026-05-05 14:26 | 33.57430 | 46.41599 | 4415 ft | 2 kts | 28° |
| 2026-05-05 14:26 | 33.57445 | 46.41596 | 4415 ft | 4 kts | 353° |
| 2026-05-05 14:26 | 33.57469 | 46.41582 | 4414 ft | 4 kts | 323° |
| 2026-05-05 14:26 | 33.57475 | 46.41576 | 4414 ft | 0 kts | 321° |
| 2026-05-05 14:27 | 33.57554 | 46.41502 | 4412 ft | 50 kts | 322° |
| 2026-05-05 14:27 | 33.58054 | 46.41040 | 4400 ft | 129 kts | 322° |
| 2026-05-05 14:27 | 33.58932 | 46.40226 | 4386 ft | 187 kts | 322° |
| 2026-05-05 14:28 | 33.60047 | 46.39204 | 4700 ft | 203 kts | 322° |
| 2026-05-05 14:28 | 33.61140 | 46.38305 | 5749 ft | 193 kts | 324° |
| 2026-05-05 14:28 | 33.62346 | 46.37264 | 5524 ft | 236 kts | 322° |
| 2026-05-05 14:28 | 33.63736 | 46.35999 | 5287 ft | 259 kts | 322° |
| 2026-05-05 14:29 | 33.65154 | 46.34610 | 6034 ft | 247 kts | 319° |
| 2026-05-05 14:29 | 33.66415 | 46.33415 | 7425 ft | 232 kts | 321° |
| 2026-05-05 14:29 | 33.67708 | 46.32163 | 7434 ft | 235 kts | 306° |
| 2026-05-05 14:29 | 33.68395 | 46.30479 | 7322 ft | 225 kts | 271° |
| 2026-05-05 14:30 | 33.68061 | 46.28652 | 7092 ft | 234 kts | 236° |
| 2026-05-05 14:30 | 33.66840 | 46.27233 | 6823 ft | 261 kts | 216° |
| 2026-05-05 14:30 | 33.65286 | 46.25918 | 7026 ft | 279 kts | 217° |
| 2026-05-05 14:30 | 33.63711 | 46.24525 | 7688 ft | 283 kts | 218° |
| 2026-05-05 14:31 | 33.62140 | 46.23081 | 8299 ft | 285 kts | 218° |
| 2026-05-05 14:31 | 33.60581 | 46.21596 | 8866 ft | 287 kts | 219° |
| 2026-05-05 14:31 | 33.59041 | 46.20051 | 9387 ft | 289 kts | 220° |
| 2026-05-05 14:31 | 33.57663 | 46.18294 | 9815 ft | 292 kts | 234° |
| 2026-05-05 14:32 | 33.56640 | 46.16207 | 10304 ft | 295 kts | 240° |
| 2026-05-05 14:32 | 33.55796 | 46.14041 | 10766 ft | 298 kts | 244° |
| 2026-05-05 14:32 | 33.55049 | 46.11711 | 11212 ft | 301 kts | 248° |
| 2026-05-05 14:32 | 33.54410 | 46.09313 | 11660 ft | 304 kts | 249° |
| 2026-05-05 14:33 | 33.53833 | 46.06942 | 12028 ft | 309 kts | 250° |
| 2026-05-05 14:33 | 33.53275 | 46.04439 | 12408 ft | 314 kts | 253° |
| 2026-05-05 14:33 | 33.52911 | 46.01901 | 12631 ft | 298 kts | 256° |
| 2026-05-05 14:33 | 33.52599 | 45.99556 | 12811 ft | 272 kts | 255° |
| 2026-05-05 14:34 | 33.52309 | 45.97354 | 13009 ft | 269 kts | 255° |
| 2026-05-05 14:34 | 33.52024 | 45.95148 | 13209 ft | 280 kts | 255° |
| 2026-05-05 14:34 | 33.51749 | 45.92849 | 13477 ft | 279 kts | 256° |
| 2026-05-05 14:34 | 33.51459 | 45.90540 | 13730 ft | 281 kts | 254° |
| 2026-05-05 14:35 | 33.51140 | 45.88216 | 13993 ft | 281 kts | 255° |
| 2026-05-05 14:35 | 33.50834 | 45.85912 | 14338 ft | 280 kts | 255° |
| 2026-05-05 14:35 | 33.50518 | 45.83601 | 14712 ft | 282 kts | 254° |
| 2026-05-05 14:35 | 33.50209 | 45.81309 | 15362 ft | 278 kts | 254° |
| 2026-05-05 14:36 | 33.49896 | 45.79019 | 15994 ft | 279 kts | 254° |
| 2026-05-05 14:36 | 33.49583 | 45.76723 | 16642 ft | 279 kts | 254° |
| 2026-05-05 14:36 | 33.49274 | 45.74426 | 17315 ft | 279 kts | 254° |
| 2026-05-05 14:36 | 33.48961 | 45.72133 | 17997 ft | 278 kts | 253° |
| 2026-05-05 14:37 | 33.48652 | 45.69884 | 18608 ft | 277 kts | 253° |
| 2026-05-05 14:37 | 33.48343 | 45.67617 | 19214 ft | 275 kts | 253° |
| 2026-05-05 14:37 | 33.48036 | 45.65369 | 19844 ft | 272 kts | 253° |
| 2026-05-05 14:37 | 33.47732 | 45.63145 | 20484 ft | 269 kts | 253° |
| 2026-05-05 14:38 | 33.47428 | 45.60936 | 21030 ft | 269 kts | 253° |
| 2026-05-05 14:38 | 33.47124 | 45.58719 | 21553 ft | 270 kts | 253° |
| 2026-05-05 14:38 | 33.46817 | 45.56489 | 22059 ft | 272 kts | 253° |
| 2026-05-05 14:38 | 33.46509 | 45.54249 | 22581 ft | 273 kts | 253° |
| 2026-05-05 14:39 | 33.46200 | 45.52004 | 23120 ft | 274 kts | 253° |
| 2026-05-05 14:39 | 33.45889 | 45.49744 | 23601 ft | 275 kts | 253° |
| 2026-05-05 14:39 | 33.45577 | 45.47484 | 24058 ft | 276 kts | 253° |
| 2026-05-05 14:39 | 33.45263 | 45.45218 | 24504 ft | 276 kts | 253° |
| 2026-05-05 14:40 | 33.44948 | 45.42943 | 24956 ft | 277 kts | 253° |
| 2026-05-05 14:40 | 33.44632 | 45.40662 | 25402 ft | 278 kts | 253° |
| 2026-05-05 14:40 | 33.44315 | 45.38375 | 25858 ft | 279 kts | 253° |
| 2026-05-05 14:40 | 33.43995 | 45.36079 | 26309 ft | 280 kts | 253° |
| 2026-05-05 14:41 | 33.43679 | 45.33806 | 26759 ft | 281 kts | 253° |
| 2026-05-05 14:41 | 33.43355 | 45.31493 | 27208 ft | 282 kts | 253° |
| 2026-05-05 14:41 | 33.43033 | 45.29178 | 27659 ft | 283 kts | 253° |
| 2026-05-05 14:41 | 33.42708 | 45.26855 | 28113 ft | 284 kts | 253° |
| 2026-05-05 14:42 | 33.42380 | 45.24516 | 28557 ft | 285 kts | 253° |
| 2026-05-05 14:42 | 33.42052 | 45.22178 | 29005 ft | 286 kts | 253° |
| 2026-05-05 14:42 | 33.41721 | 45.19824 | 29453 ft | 287 kts | 253° |
| 2026-05-05 14:42 | 33.41389 | 45.17461 | 29911 ft | 288 kts | 253° |
| 2026-05-05 14:43 | 33.41055 | 45.15091 | 30289 ft | 290 kts | 254° |
| 2026-05-05 14:43 | 33.40719 | 45.12711 | 30675 ft | 291 kts | 254° |
| 2026-05-05 14:43 | 33.40495 | 45.11126 | 30926 ft | 292 kts | 254° |
| 2026-05-05 14:43 | 33.40041 | 45.07918 | 31443 ft | 294 kts | 254° |
| 2026-05-05 14:44 | 33.39814 | 45.06315 | 31693 ft | 295 kts | 254° |
| 2026-05-05 14:44 | 33.39471 | 45.03897 | 32076 ft | 296 kts | 254° |
| 2026-05-05 14:44 | 33.39126 | 45.01460 | 32464 ft | 298 kts | 254° |
| 2026-05-05 14:44 | 33.38777 | 44.99012 | 32859 ft | 299 kts | 255° |
| 2026-05-05 14:45 | 33.38427 | 44.96551 | 33234 ft | 301 kts | 255° |
| 2026-05-05 14:45 | 33.38073 | 44.94070 | 33595 ft | 302 kts | 255° |
| 2026-05-05 14:45 | 33.37717 | 44.91580 | 33958 ft | 304 kts | 255° |
| 2026-05-05 14:45 | 33.37359 | 44.89074 | 34243 ft | 307 kts | 255° |
| 2026-05-05 14:46 | 33.37000 | 44.86575 | 34488 ft | 310 kts | 255° |
| 2026-05-05 14:46 | 33.36632 | 44.84025 | 34760 ft | 313 kts | 255° |
| 2026-05-05 14:46 | 33.36234 | 44.81452 | 35029 ft | 315 kts | 254° |
| 2026-05-05 14:46 | 33.35743 | 44.78892 | 35293 ft | 315 kts | 249° |
| 2026-05-05 14:47 | 33.35062 | 44.76385 | 35560 ft | 318 kts | 249° |
| 2026-05-05 14:47 | 33.34405 | 44.73849 | 35828 ft | 321 kts | 249° |
| 2026-05-05 14:47 | 33.33743 | 44.71287 | 36103 ft | 324 kts | 250° |
| 2026-05-05 14:47 | 33.33103 | 44.68691 | 36374 ft | 327 kts | 251° |
| 2026-05-05 14:48 | 33.32618 | 44.66016 | 36662 ft | 331 kts | 255° |
| 2026-05-05 14:48 | 33.32167 | 44.63305 | 36941 ft | 333 kts | 254° |
| 2026-05-05 14:48 | 33.31728 | 44.60559 | 37211 ft | 337 kts | 255° |
| 2026-05-05 14:48 | 33.31300 | 44.57799 | 37503 ft | 339 kts | 255° |
| 2026-05-05 14:49 | 33.30861 | 44.55021 | 37793 ft | 341 kts | 255° |
| 2026-05-05 14:49 | 33.30424 | 44.52224 | 38083 ft | 344 kts | 255° |
| 2026-05-05 14:49 | 33.29515 | 44.46484 | 37844 ft | 366 kts | 255° |
| 2026-05-05 14:50 | 33.29037 | 44.43463 | 37615 ft | 372 kts | 255° |
| 2026-05-05 14:50 | 33.28558 | 44.40425 | 37541 ft | 371 kts | 255° |
| 2026-05-05 14:50 | 33.27606 | 44.34431 | 37481 ft | 363 kts | 255° |
| 2026-05-05 14:51 | 33.26714 | 44.28533 | 37479 ft | 362 kts | 259° |
| 2026-05-05 14:51 | 33.26467 | 44.22444 | 37479 ft | 370 kts | 262° |
| 2026-05-05 14:52 | 33.26651 | 44.16237 | 37479 ft | 375 kts | 266° |
| 2026-05-05 14:52 | 33.27017 | 44.10034 | 37474 ft | 373 kts | 267° |
| 2026-05-05 14:53 | 33.27399 | 44.03893 | 37475 ft | 375 kts | 267° |
| 2026-05-05 14:53 | 33.27591 | 44.00696 | 37475 ft | 386 kts | 267° |
| 2026-05-05 14:53 | 33.27793 | 43.97458 | 37462 ft | 394 kts | 267° |
| 2026-05-05 14:54 | 33.28194 | 43.90970 | 37455 ft | 392 kts | 267° |
| 2026-05-05 14:54 | 33.28583 | 43.84530 | 37459 ft | 386 kts | 267° |
| 2026-05-05 14:55 | 33.28966 | 43.78132 | 37459 ft | 386 kts | 267° |
| 2026-05-05 14:55 | 33.29349 | 43.71692 | 37459 ft | 390 kts | 267° |
| 2026-05-05 14:56 | 33.29731 | 43.65223 | 37459 ft | 389 kts | 267° |
| 2026-05-05 14:56 | 33.30107 | 43.58777 | 37458 ft | 388 kts | 267° |
| 2026-05-05 14:57 | 33.30479 | 43.52345 | 37464 ft | 388 kts | 267° |
| 2026-05-05 14:57 | 33.30849 | 43.45896 | 37455 ft | 389 kts | 267° |
| 2026-05-05 14:58 | 33.31215 | 43.39479 | 37450 ft | 389 kts | 267° |
| 2026-05-05 14:58 | 33.31578 | 43.33027 | 37453 ft | 389 kts | 267° |
| 2026-05-05 14:59 | 33.31926 | 43.26586 | 37458 ft | 388 kts | 266° |
| 2026-05-05 14:59 | 33.32309 | 43.20128 | 37453 ft | 390 kts | 267° |
| 2026-05-05 15:00 | 33.32639 | 43.14744 | 37458 ft | 391 kts | 267° |
| 2026-05-05 15:00 | 33.33099 | 43.07166 | 37454 ft | 391 kts | 267° |
| 2026-05-05 15:01 | 33.33488 | 43.00693 | 37462 ft | 390 kts | 267° |
| 2026-05-05 15:01 | 33.33874 | 42.94206 | 37464 ft | 391 kts | 267° |
| 2026-05-05 15:02 | 33.34259 | 42.87700 | 37461 ft | 393 kts | 267° |
| 2026-05-05 15:02 | 33.34641 | 42.81177 | 37466 ft | 392 kts | 267° |
| 2026-05-05 15:03 | 33.34997 | 42.74827 | 37468 ft | 390 kts | 266° |
| 2026-05-05 15:03 | 33.35251 | 42.68335 | 37463 ft | 391 kts | 266° |
| 2026-05-05 15:04 | 33.35490 | 42.61814 | 37467 ft | 392 kts | 266° |
| 2026-05-05 15:04 | 33.35726 | 42.55288 | 37467 ft | 392 kts | 266° |
| 2026-05-05 15:05 | 33.36073 | 42.45534 | 37469 ft | 391 kts | 266° |
| 2026-05-05 15:06 | 33.36301 | 42.39014 | 37470 ft | 392 kts | 266° |
| 2026-05-05 15:06 | 33.36525 | 42.32523 | 37470 ft | 393 kts | 266° |
| 2026-05-05 15:07 | 33.36746 | 42.25998 | 37470 ft | 392 kts | 266° |
| 2026-05-05 15:07 | 33.36964 | 42.19472 | 37472 ft | 392 kts | 266° |
| 2026-05-05 15:08 | 33.37178 | 42.12944 | 37472 ft | 393 kts | 266° |
| 2026-05-05 15:08 | 33.37390 | 42.06405 | 37475 ft | 393 kts | 266° |
| 2026-05-05 15:09 | 33.37597 | 41.99894 | 37477 ft | 393 kts | 266° |
| 2026-05-05 15:09 | 33.37802 | 41.93355 | 37479 ft | 393 kts | 266° |
| 2026-05-05 15:10 | 33.38003 | 41.86816 | 37490 ft | 393 kts | 266° |
| 2026-05-05 15:10 | 33.38188 | 41.80279 | 37483 ft | 392 kts | 263° |
| 2026-05-05 15:10 | 33.37742 | 41.77134 | 37508 ft | 382 kts | 248° |
| 2026-05-05 15:11 | 33.36720 | 41.74193 | 37482 ft | 382 kts | 244° |
| 2026-05-05 15:11 | 33.34417 | 41.68450 | 37476 ft | 382 kts | 240° |
| 2026-05-05 15:12 | 33.31707 | 41.63052 | 37484 ft | 380 kts | 238° |
| 2026-05-05 15:12 | 33.28913 | 41.57673 | 37486 ft | 381 kts | 238° |
| 2026-05-05 15:13 | 33.26111 | 41.52296 | 37496 ft | 382 kts | 238° |
| 2026-05-05 15:13 | 33.23295 | 41.46897 | 37489 ft | 382 kts | 238° |
| 2026-05-05 15:14 | 33.20487 | 41.41519 | 37495 ft | 381 kts | 238° |
| 2026-05-05 15:14 | 33.17670 | 41.36131 | 37493 ft | 388 kts | 238° |
| 2026-05-05 15:15 | 33.14759 | 41.30573 | 37477 ft | 406 kts | 238° |
| 2026-05-05 15:15 | 33.11751 | 41.24838 | 37466 ft | 407 kts | 238° |
| 2026-05-05 15:16 | 33.09301 | 41.18801 | 37491 ft | 410 kts | 257° |
| 2026-05-05 15:16 | 33.08702 | 41.11992 | 37480 ft | 414 kts | 261° |
| 2026-05-05 15:17 | 33.08565 | 41.05102 | 37482 ft | 417 kts | 265° |
| 2026-05-05 15:17 | 33.08646 | 40.98183 | 37477 ft | 417 kts | 266° |
| 2026-05-05 15:18 | 33.08747 | 40.91254 | 37476 ft | 418 kts | 266° |
| 2026-05-05 15:18 | 33.08844 | 40.84324 | 37475 ft | 418 kts | 266° |
| 2026-05-05 15:19 | 33.08937 | 40.77395 | 37478 ft | 418 kts | 266° |
| 2026-05-05 15:19 | 33.09026 | 40.70464 | 37474 ft | 418 kts | 266° |
| 2026-05-05 15:20 | 33.09111 | 40.63519 | 37475 ft | 418 kts | 266° |
| 2026-05-05 15:20 | 33.09193 | 40.56585 | 37480 ft | 418 kts | 266° |
| 2026-05-05 15:21 | 33.09271 | 40.49653 | 37473 ft | 418 kts | 266° |
| 2026-05-05 15:21 | 33.09344 | 40.42766 | 37480 ft | 418 kts | 266° |
| 2026-05-05 15:22 | 33.09414 | 40.35819 | 37476 ft | 418 kts | 266° |
| 2026-05-05 15:22 | 33.09480 | 40.28878 | 37475 ft | 418 kts | 266° |
| 2026-05-05 15:23 | 33.09542 | 40.21934 | 37477 ft | 418 kts | 266° |
| 2026-05-05 15:23 | 33.09601 | 40.14990 | 37473 ft | 418 kts | 266° |
| 2026-05-05 15:24 | 33.09655 | 40.08090 | 37475 ft | 418 kts | 266° |
| 2026-05-05 15:24 | 33.09706 | 40.01149 | 37472 ft | 419 kts | 266° |
| 2026-05-05 15:25 | 33.09753 | 39.94203 | 37470 ft | 419 kts | 266° |
| 2026-05-05 15:25 | 33.09796 | 39.87260 | 37474 ft | 419 kts | 266° |
| 2026-05-05 15:26 | 33.09835 | 39.80309 | 37466 ft | 419 kts | 266° |
| 2026-05-05 15:26 | 33.09870 | 39.73344 | 37471 ft | 419 kts | 266° |
| 2026-05-05 15:27 | 33.09902 | 39.66437 | 37483 ft | 419 kts | 266° |
| 2026-05-05 15:27 | 33.09930 | 39.59488 | 37471 ft | 419 kts | 266° |
| 2026-05-05 15:28 | 33.09954 | 39.52522 | 37471 ft | 419 kts | 266° |
| 2026-05-05 15:28 | 33.09973 | 39.45567 | 37478 ft | 419 kts | 266° |
| 2026-05-05 15:29 | 33.09987 | 39.39784 | 37474 ft | 420 kts | 266° |
| 2026-05-05 15:29 | 33.10000 | 39.32819 | 37483 ft | 420 kts | 266° |
| 2026-05-05 15:30 | 33.10010 | 39.24658 | 37486 ft | 420 kts | 266° |
| 2026-05-05 15:30 | 33.10014 | 39.18857 | 37488 ft | 421 kts | 266° |
| 2026-05-05 15:31 | 33.10015 | 39.11880 | 37492 ft | 421 kts | 266° |
| 2026-05-05 15:31 | 33.10013 | 39.04900 | 37489 ft | 421 kts | 266° |
| 2026-05-05 15:32 | 33.10000 | 38.97955 | 37495 ft | 420 kts | 265° |
| 2026-05-05 15:32 | 33.09161 | 38.91045 | 37501 ft | 417 kts | 256° |
| 2026-05-05 15:33 | 33.07516 | 38.84416 | 37500 ft | 417 kts | 251° |
| 2026-05-05 15:33 | 33.05694 | 38.77861 | 37499 ft | 412 kts | 251° |
| 2026-05-05 15:33 | 33.04801 | 38.74679 | 37510 ft | 398 kts | 251° |
| 2026-05-05 15:34 | 33.03942 | 38.71600 | 37517 ft | 382 kts | 251° |
| 2026-05-05 15:34 | 33.03130 | 38.68702 | 37525 ft | 366 kts | 251° |
| 2026-05-05 15:34 | 33.02346 | 38.65897 | 37554 ft | 347 kts | 251° |
| 2026-05-05 15:34 | 33.01597 | 38.63234 | 37567 ft | 328 kts | 251° |
| 2026-05-05 15:35 | 33.00894 | 38.60727 | 37583 ft | 310 kts | 251° |
| 2026-05-05 15:35 | 33.00224 | 38.58347 | 37400 ft | 300 kts | 251° |
| 2026-05-05 15:35 | 32.99559 | 38.55993 | 36797 ft | 299 kts | 251° |
| 2026-05-05 15:35 | 32.98895 | 38.53635 | 36181 ft | 299 kts | 251° |
| 2026-05-05 15:36 | 32.98235 | 38.51291 | 35594 ft | 299 kts | 251° |
| 2026-05-05 15:36 | 32.97573 | 38.48939 | 35021 ft | 299 kts | 251° |
| 2026-05-05 15:36 | 32.96910 | 38.46583 | 34446 ft | 300 kts | 251° |
| 2026-05-05 15:36 | 32.96244 | 38.44223 | 33876 ft | 301 kts | 251° |
| 2026-05-05 15:37 | 32.95573 | 38.41853 | 33172 ft | 304 kts | 251° |
| 2026-05-05 15:37 | 32.94892 | 38.39445 | 32423 ft | 308 kts | 251° |
| 2026-05-05 15:37 | 32.94204 | 38.37006 | 31682 ft | 313 kts | 251° |
| 2026-05-05 15:37 | 32.93526 | 38.34614 | 30989 ft | 318 kts | 252° |
| 2026-05-05 15:38 | 32.92816 | 38.32107 | 30286 ft | 322 kts | 252° |
| 2026-05-05 15:38 | 32.92094 | 38.29560 | 29521 ft | 326 kts | 252° |
| 2026-05-05 15:38 | 32.91372 | 38.27013 | 28701 ft | 331 kts | 252° |
| 2026-05-05 15:38 | 32.90632 | 38.24405 | 27908 ft | 334 kts | 252° |
| 2026-05-05 15:39 | 32.89882 | 38.21771 | 27126 ft | 338 kts | 253° |
| 2026-05-05 15:39 | 32.89130 | 38.19125 | 26350 ft | 340 kts | 253° |
| 2026-05-05 15:39 | 32.88372 | 38.16470 | 25624 ft | 336 kts | 253° |
| 2026-05-05 15:39 | 32.87625 | 38.13849 | 24894 ft | 333 kts | 253° |
| 2026-05-05 15:40 | 32.86876 | 38.11227 | 24189 ft | 329 kts | 253° |
| 2026-05-05 15:40 | 32.86132 | 38.08694 | 23509 ft | 326 kts | 253° |
| 2026-05-05 15:40 | 32.85414 | 38.06112 | 22713 ft | 323 kts | 254° |
| 2026-05-05 15:40 | 32.84697 | 38.03586 | 21937 ft | 321 kts | 253° |
| 2026-05-05 15:41 | 32.83998 | 38.01112 | 21187 ft | 319 kts | 254° |
| 2026-05-05 15:41 | 32.83296 | 37.98620 | 20445 ft | 317 kts | 253° |
| 2026-05-05 15:41 | 32.82600 | 37.96167 | 19961 ft | 307 kts | 254° |
| 2026-05-05 15:41 | 32.81940 | 37.93833 | 19768 ft | 288 kts | 254° |
| 2026-05-05 15:42 | 32.81321 | 37.91652 | 19630 ft | 268 kts | 255° |
| 2026-05-05 15:42 | 32.80751 | 37.89614 | 19403 ft | 252 kts | 255° |
| 2026-05-05 15:42 | 32.80214 | 37.87664 | 19183 ft | 245 kts | 254° |
| 2026-05-05 15:42 | 32.79651 | 37.85787 | 18957 ft | 237 kts | 254° |
| 2026-05-05 15:43 | 32.79123 | 37.83967 | 18757 ft | 229 kts | 255° |
| 2026-05-05 15:43 | 32.78609 | 37.82213 | 18552 ft | 220 kts | 254° |
| 2026-05-05 15:43 | 32.78109 | 37.80516 | 18355 ft | 215 kts | 255° |
| 2026-05-05 15:43 | 32.77617 | 37.78826 | 18160 ft | 217 kts | 255° |
| 2026-05-05 15:44 | 32.77119 | 37.77141 | 17940 ft | 221 kts | 254° |
| 2026-05-05 15:44 | 32.76609 | 37.75407 | 17721 ft | 223 kts | 254° |
| 2026-05-05 15:44 | 32.76102 | 37.73671 | 17490 ft | 221 kts | 254° |
| 2026-05-05 15:44 | 32.75598 | 37.71950 | 17270 ft | 219 kts | 254° |
| 2026-05-05 15:45 | 32.75079 | 37.70257 | 17052 ft | 218 kts | 249° |
| 2026-05-05 15:45 | 32.74347 | 37.68663 | 16838 ft | 222 kts | 243° |
| 2026-05-05 15:45 | 32.73520 | 37.67101 | 16630 ft | 223 kts | 243° |
| 2026-05-05 15:45 | 32.72672 | 37.65557 | 16416 ft | 224 kts | 239° |
| 2026-05-05 15:46 | 32.71721 | 37.64084 | 16204 ft | 224 kts | 238° |
| 2026-05-05 15:46 | 32.70788 | 37.62614 | 16004 ft | 222 kts | 239° |
| 2026-05-05 15:46 | 32.69855 | 37.61150 | 15797 ft | 223 kts | 238° |
| 2026-05-05 15:46 | 32.68899 | 37.59696 | 15594 ft | 223 kts | 238° |
| 2026-05-05 15:47 | 32.67955 | 37.58232 | 15384 ft | 223 kts | 238° |
| 2026-05-05 15:47 | 32.67328 | 37.57264 | 15255 ft | 223 kts | 238° |
| 2026-05-05 15:47 | 32.66060 | 37.55312 | 14985 ft | 222 kts | 238° |
| 2026-05-05 15:47 | 32.65135 | 37.53879 | 14784 ft | 222 kts | 238° |
| 2026-05-05 15:48 | 32.64190 | 37.52423 | 14599 ft | 223 kts | 238° |
| 2026-05-05 15:48 | 32.63240 | 37.50965 | 14403 ft | 223 kts | 237° |
| 2026-05-05 15:48 | 32.62298 | 37.49511 | 14203 ft | 222 kts | 238° |
| 2026-05-05 15:48 | 32.61360 | 37.48064 | 14009 ft | 221 kts | 237° |
| 2026-05-05 15:49 | 32.60423 | 37.46620 | 13815 ft | 221 kts | 237° |
| 2026-05-05 15:49 | 32.59481 | 37.45170 | 13605 ft | 222 kts | 237° |
| 2026-05-05 15:49 | 32.58536 | 37.43718 | 13379 ft | 222 kts | 237° |
| 2026-05-05 15:49 | 32.57597 | 37.42270 | 13165 ft | 221 kts | 237° |
| 2026-05-05 15:50 | 32.56658 | 37.40828 | 12958 ft | 221 kts | 237° |
| 2026-05-05 15:50 | 32.55723 | 37.39392 | 12753 ft | 220 kts | 237° |
| 2026-05-05 15:50 | 32.54790 | 37.37957 | 12539 ft | 219 kts | 237° |
| 2026-05-05 15:50 | 32.53859 | 37.36527 | 12338 ft | 218 kts | 236° |
| 2026-05-05 15:51 | 32.52931 | 37.35101 | 12134 ft | 218 kts | 236° |
| 2026-05-05 15:51 | 32.52005 | 37.33681 | 11937 ft | 218 kts | 236° |
| 2026-05-05 15:51 | 32.51076 | 37.32260 | 11726 ft | 218 kts | 236° |
| 2026-05-05 15:51 | 32.50154 | 37.30842 | 11576 ft | 215 kts | 236° |
| 2026-05-05 15:52 | 32.49248 | 37.29453 | 11346 ft | 220 kts | 236° |
| 2026-05-05 15:52 | 32.48334 | 37.28056 | 11509 ft | 209 kts | 236° |
| 2026-05-05 15:52 | 32.47431 | 37.26667 | 11628 ft | 218 kts | 236° |
| 2026-05-05 15:52 | 32.46496 | 37.25243 | 11689 ft | 219 kts | 236° |
| 2026-05-05 15:53 | 32.45562 | 37.23816 | 11722 ft | 219 kts | 237° |
| 2026-05-05 15:53 | 32.44604 | 37.22334 | 11707 ft | 235 kts | 236° |
| 2026-05-05 15:53 | 32.43586 | 37.20784 | 12065 ft | 244 kts | 236° |
| 2026-05-05 15:53 | 32.42535 | 37.19182 | 12648 ft | 249 kts | 236° |
| 2026-05-05 15:54 | 32.41473 | 37.17547 | 13247 ft | 253 kts | 236° |
| 2026-05-05 15:54 | 32.40386 | 37.15886 | 13844 ft | 257 kts | 237° |
| 2026-05-05 15:54 | 32.39285 | 37.14207 | 14379 ft | 260 kts | 237° |
| 2026-05-05 15:54 | 32.38169 | 37.12493 | 14920 ft | 264 kts | 237° |
| 2026-05-05 15:55 | 32.37034 | 37.10767 | 15473 ft | 268 kts | 237° |
| 2026-05-05 15:55 | 32.35886 | 37.09010 | 16035 ft | 271 kts | 237° |
| 2026-05-05 15:55 | 32.34722 | 37.07236 | 16594 ft | 275 kts | 237° |
| 2026-05-05 15:55 | 32.33542 | 37.05437 | 17164 ft | 278 kts | 237° |
| 2026-05-05 15:56 | 32.32348 | 37.03619 | 17745 ft | 281 kts | 237° |
| 2026-05-05 15:56 | 32.31142 | 37.01780 | 18316 ft | 284 kts | 237° |
| 2026-05-05 15:56 | 32.29921 | 36.99919 | 18833 ft | 288 kts | 237° |
| 2026-05-05 15:56 | 32.28688 | 36.98044 | 19334 ft | 291 kts | 237° |
| 2026-05-05 15:57 | 32.27464 | 36.96186 | 19540 ft | 279 kts | 237° |
| 2026-05-05 15:57 | 32.26306 | 36.94424 | 19626 ft | 264 kts | 237° |
| 2026-05-05 15:57 | 32.25224 | 36.92775 | 19661 ft | 250 kts | 238° |
| 2026-05-05 15:57 | 32.24183 | 36.91195 | 19702 ft | 238 kts | 238° |
| 2026-05-05 15:58 | 32.23178 | 36.89667 | 19721 ft | 235 kts | 238° |
| 2026-05-05 15:58 | 32.22163 | 36.88125 | 19730 ft | 241 kts | 237° |
| 2026-05-05 15:58 | 32.21118 | 36.86552 | 19734 ft | 244 kts | 237° |
| 2026-05-05 15:58 | 32.20077 | 36.84967 | 19738 ft | 243 kts | 237° |
| 2026-05-05 15:59 | 32.19041 | 36.83394 | 19737 ft | 241 kts | 237° |
| 2026-05-05 15:59 | 32.18011 | 36.81833 | 19735 ft | 241 kts | 237° |
| 2026-05-05 15:59 | 32.16979 | 36.80268 | 19735 ft | 243 kts | 237° |
| 2026-05-05 15:59 | 32.15935 | 36.78691 | 19732 ft | 244 kts | 237° |
| 2026-05-05 16:00 | 32.14895 | 36.77113 | 19737 ft | 243 kts | 237° |
| 2026-05-05 16:00 | 32.13856 | 36.75543 | 19736 ft | 242 kts | 237° |
| 2026-05-05 16:00 | 32.12821 | 36.73978 | 19742 ft | 241 kts | 237° |
| 2026-05-05 16:00 | 32.11787 | 36.72414 | 19745 ft | 242 kts | 237° |
| 2026-05-05 16:01 | 32.10745 | 36.70846 | 19742 ft | 244 kts | 237° |
| 2026-05-05 16:01 | 32.09661 | 36.69198 | 19660 ft | 266 kts | 237° |
| 2026-05-05 16:01 | 32.08474 | 36.67419 | 19706 ft | 283 kts | 236° |
| 2026-05-05 16:01 | 32.07264 | 36.65597 | 19689 ft | 285 kts | 237° |
| 2026-05-05 16:02 | 32.06194 | 36.63660 | 19707 ft | 280 kts | 246° |
| 2026-05-05 16:02 | 32.05442 | 36.61571 | 19711 ft | 275 kts | 253° |
| 2026-05-05 16:02 | 32.04891 | 36.59423 | 19713 ft | 273 kts | 257° |
| 2026-05-05 16:02 | 32.04557 | 36.57234 | 19723 ft | 272 kts | 265° |
| 2026-05-05 16:03 | 32.04370 | 36.55009 | 19718 ft | 274 kts | 264° |
| 2026-05-05 16:03 | 32.04153 | 36.52694 | 19717 ft | 295 kts | 265° |
| 2026-05-05 16:03 | 32.03962 | 36.50194 | 19694 ft | 318 kts | 265° |
| 2026-05-05 16:03 | 32.03748 | 36.47512 | 19678 ft | 338 kts | 265° |
| 2026-05-05 16:04 | 32.03529 | 36.44726 | 19662 ft | 342 kts | 265° |
| 2026-05-05 16:04 | 32.03301 | 36.41936 | 19653 ft | 341 kts | 265° |
| 2026-05-05 16:04 | 32.03081 | 36.39166 | 19651 ft | 338 kts | 265° |
| 2026-05-05 16:04 | 32.02858 | 36.36420 | 19652 ft | 336 kts | 265° |
| 2026-05-05 16:05 | 32.02637 | 36.33685 | 19659 ft | 335 kts | 265° |
| 2026-05-05 16:05 | 32.02414 | 36.30955 | 19661 ft | 335 kts | 265° |
| 2026-05-05 16:05 | 32.02190 | 36.28210 | 19664 ft | 337 kts | 265° |
| 2026-05-05 16:05 | 32.01968 | 36.25487 | 19662 ft | 338 kts | 265° |
| 2026-05-05 16:06 | 32.01740 | 36.22730 | 19665 ft | 338 kts | 265° |
| 2026-05-05 16:06 | 32.01515 | 36.19973 | 19663 ft | 337 kts | 265° |
| 2026-05-05 16:06 | 32.01289 | 36.17228 | 19665 ft | 338 kts | 265° |
| 2026-05-05 16:06 | 32.01055 | 36.14382 | 19661 ft | 359 kts | 265° |
| 2026-05-05 16:07 | 32.00805 | 36.11411 | 19642 ft | 367 kts | 265° |
| 2026-05-05 16:07 | 32.00560 | 36.08420 | 19638 ft | 366 kts | 265° |
| 2026-05-05 16:07 | 32.00198 | 36.05460 | 19639 ft | 364 kts | 260° |
| 2026-05-05 16:07 | 31.99735 | 36.02466 | 19629 ft | 381 kts | 261° |
| 2026-05-05 16:08 | 31.99231 | 35.99327 | 19611 ft | 399 kts | 259° |
| 2026-05-05 16:08 | 31.98708 | 35.96131 | 19595 ft | 402 kts | 260° |
| 2026-05-05 16:08 | 31.98179 | 35.92908 | 19580 ft | 400 kts | 260° |
| 2026-05-05 16:08 | 31.97648 | 35.89659 | 19580 ft | 411 kts | 260° |
| 2026-05-05 16:09 | 31.97091 | 35.86277 | 19562 ft | 430 kts | 260° |
| 2026-05-05 16:09 | 31.96510 | 35.82739 | 19526 ft | 447 kts | 260° |
| 2026-05-05 16:09 | 31.95908 | 35.79072 | 19466 ft | 463 kts | 259° |
| 2026-05-05 16:09 | 31.95290 | 35.75328 | 19382 ft | 466 kts | 260° |
| 2026-05-05 16:10 | 31.94673 | 35.71593 | 19300 ft | 464 kts | 260° |
| 2026-05-05 16:10 | 31.94055 | 35.67859 | 19220 ft | 463 kts | 260° |
| 2026-05-05 16:10 | 31.93660 | 35.65395 | 19172 ft | 462 kts | 261° |
| 2026-05-05 16:10 | 31.93181 | 35.61655 | 19075 ft | 462 kts | 264° |
| 2026-05-05 16:11 | 31.93173 | 35.57877 | 18994 ft | 461 kts | 272° |
| 2026-05-05 16:11 | 31.93608 | 35.45381 | 18711 ft | 452 kts | 273° |
| 2026-05-05 16:12 | 31.93765 | 35.41760 | 18599 ft | 434 kts | 273° |
| 2026-05-05 16:12 | 31.94020 | 35.35867 | 17370 ft | 427 kts | 272° |
| 2026-05-05 16:13 | 31.94940 | 35.25566 | 15211 ft | 419 kts | 286° |
| 2026-05-05 16:13 | 31.95898 | 35.22333 | 14542 ft | 417 kts | 289° |
| 2026-05-05 16:13 | 31.96983 | 35.19226 | 13886 ft | 414 kts | 295° |
| 2026-05-05 16:14 | 31.99577 | 35.13330 | 12439 ft | 390 kts | 296° |
| 2026-05-05 16:14 | 32.01978 | 35.08005 | 11583 ft | 347 kts | 296° |
| 2026-05-05 16:15 | 32.04104 | 35.03309 | 11054 ft | 304 kts | 298° |
| 2026-05-05 16:15 | 32.05891 | 34.99209 | 10623 ft | 260 kts | 294° |
| 2026-05-05 16:16 | 32.07313 | 34.95696 | 10263 ft | 214 kts | 294° |
| 2026-05-05 16:16 | 32.08122 | 34.92520 | 9333 ft | 211 kts | 259° |
| 2026-05-05 16:17 | 32.07735 | 34.89209 | 8128 ft | 196 kts | 298° |
| 2026-05-05 16:17 | 32.08739 | 34.88111 | 7475 ft | 206 kts | 330° |
| 2026-05-05 16:18 | 32.10633 | 34.85925 | 7272 ft | 189 kts | 295° |
| 2026-05-05 16:18 | 32.11273 | 34.84557 | 7539 ft | 192 kts | 298° |
| 2026-05-05 16:18 | 32.12729 | 34.81794 | 7765 ft | 199 kts | 295° |
| 2026-05-05 16:19 | 32.13321 | 34.80324 | 7794 ft | 198 kts | 292° |
| 2026-05-05 16:19 | 32.13914 | 34.78854 | 7812 ft | 198 kts | 293° |
| 2026-05-05 16:19 | 32.15077 | 34.75921 | 7813 ft | 196 kts | 294° |
| 2026-05-05 16:20 | 32.17252 | 34.73977 | 7827 ft | 209 kts | 334° |
| 2026-05-05 16:20 | 32.19902 | 34.72820 | 7824 ft | 210 kts | 340° |
| 2026-05-05 16:21 | 32.22752 | 34.72074 | 7829 ft | 214 kts | 2° |
| 2026-05-05 16:22 | 32.25109 | 34.76403 | 7451 ft | 253 kts | 91° |
| 2026-05-05 16:22 | 32.24921 | 34.80767 | 5807 ft | 260 kts | 98° |
| 2026-05-05 16:23 | 32.24216 | 34.84532 | 5004 ft | 218 kts | 108° |
| 2026-05-05 16:23 | 32.23783 | 34.86271 | 4916 ft | 223 kts | 107° |
| 2026-05-05 16:23 | 32.22887 | 34.89759 | 4857 ft | 223 kts | 111° |
| 2026-05-05 16:24 | 32.22390 | 34.91502 | 4854 ft | 224 kts | 108° |
| 2026-05-05 16:24 | 32.21973 | 34.93283 | 4855 ft | 225 kts | 108° |
| 2026-05-05 16:24 | 32.21041 | 34.96818 | 4836 ft | 224 kts | 108° |
| 2026-05-05 16:25 | 32.20383 | 34.98445 | 4842 ft | 220 kts | 137° |
| 2026-05-05 16:25 | 32.17697 | 34.99176 | 4382 ft | 208 kts | 204° |
| 2026-05-05 16:25 | 32.16355 | 34.98623 | 3679 ft | 214 kts | 205° |
| 2026-05-05 16:26 | 32.13766 | 34.97910 | 3109 ft | 165 kts | 203° |
| 2026-05-05 16:26 | 32.11667 | 34.96968 | 2382 ft | 161 kts | 215° |
| 2026-05-05 16:27 | 32.10667 | 34.96224 | 1988 ft | 182 kts | 220° |
| 2026-05-05 16:27 | 32.09612 | 34.95389 | 1823 ft | 181 kts | 218° |
| 2026-05-05 16:27 | 32.08605 | 34.94623 | 1753 ft | 163 kts | 221° |
| 2026-05-05 16:27 | 32.07655 | 34.93919 | 1505 ft | 161 kts | 218° |
| 2026-05-05 16:28 | 32.06715 | 34.93259 | 1284 ft | 159 kts | 216° |
| 2026-05-05 16:28 | 32.05782 | 34.92627 | 1092 ft | 151 kts | 215° |
| 2026-05-05 16:28 | 32.04836 | 34.92008 | 889 ft | 159 kts | 213° |
| 2026-05-05 16:28 | 32.03851 | 34.91355 | 692 ft | 163 kts | 213° |
| 2026-05-05 16:29 | 32.02876 | 34.90704 | 467 ft | 161 kts | 213° |
| 2026-05-05 16:29 | 32.01906 | 34.90081 | 209 ft | 158 kts | 208° |
| 2026-05-05 16:29 | 32.00981 | 34.89478 | 147 ft | 138 kts | 208° |
| 2026-05-05 16:29 | 32.00529 | 34.89191 | 140 ft | 28 kts | 209° |
| 2026-05-05 16:30 | 32.00469 | 34.89074 | 141 ft | 12 kts | 282° |